sensor_id;sensor_type;location;lat;lon;timestamp;temperature;humidity
12268;DHT22;6196;48.398;11.736;2023-09-19T00:00:58;15.70;99.90
12268;DHT22;6196;48.398;11.736;2023-09-19T00:03:26;15.80;99.90
12268;DHT22;6196;48.398;11.736;2023-09-19T00:05:53;15.80;99.90
12268;DHT22;6196;48.398;11.736;2023-09-19T00:08:20;15.80;99.90
12268;DHT22;6196;48.398;11.736;2023-09-19T00:10:50;15.90;99.90
12268;DHT22;6196;48.398;11.736;2023-09-19T00:13:17;15.80;99.90
12268;DHT22;6196;48.398;11.736;2023-09-19T00:15:46;15.80;99.90
12268;DHT22;6196;48.398;11.736;2023-09-19T00:18:18;15.80;99.90
12268;DHT22;6196;48.398;11.736;2023-09-19T00:20:48;15.80;99.90
12268;DHT22;6196;48.398;11.736;2023-09-19T00:23:15;15.80;99.90
12268;DHT22;6196;48.398;11.736;2023-09-19T00:25:43;15.80;99.90
12268;DHT22;6196;48.398;11.736;2023-09-19T00:28:10;15.70;99.90
12268;DHT22;6196;48.398;11.736;2023-09-19T00:30:37;15.60;99.90
12268;DHT22;6196;48.398;11.736;2023-09-19T00:33:05;15.60;99.90
12268;DHT22;6196;48.398;11.736;2023-09-19T00:35:34;15.50;99.90
12268;DHT22;6196;48.398;11.736;2023-09-19T00:38:01;15.60;99.90
12268;DHT22;6196;48.398;11.736;2023-09-19T00:40:29;15.50;99.90
12268;DHT22;6196;48.398;11.736;2023-09-19T00:42:59;15.40;99.90
12268;DHT22;6196;48.398;11.736;2023-09-19T00:45:27;15.50;99.90
12268;DHT22;6196;48.398;11.736;2023-09-19T00:47:55;15.60;99.90
12268;DHT22;6196;48.398;11.736;2023-09-19T00:50:25;15.60;99.90
12268;DHT22;6196;48.398;11.736;2023-09-19T00:52:56;15.60;99.90
12268;DHT22;6196;48.398;11.736;2023-09-19T00:55:24;15.50;99.90
12268;DHT22;6196;48.398;11.736;2023-09-19T00:57:52;15.60;99.90
12268;DHT22;6196;48.398;11.736;2023-09-19T01:00:19;15.60;99.90
12268;DHT22;6196;48.398;11.736;2023-09-19T01:02:48;15.70;99.90
12268;DHT22;6196;48.398;11.736;2023-09-19T01:05:15;15.70;99.90
12268;DHT22;6196;48.398;11.736;2023-09-19T01:07:43;15.70;99.90
12268;DHT22;6196;48.398;11.736;2023-09-19T01:10:13;15.70;99.90
12268;DHT22;6196;48.398;11.736;2023-09-19T01:22:42;15.80;99.90
12268;DHT22;6196;48.398;11.736;2023-09-19T01:28:42;15.90;99.90
12268;DHT22;6196;48.398;11.736;2023-09-19T01:31:14;16.00;99.90
12268;DHT22;6196;48.398;11.736;2023-09-19T01:34:07;16.00;99.90
12268;DHT22;6196;48.398;11.736;2023-09-19T01:36:36;16.10;99.90
12268;DHT22;6196;48.398;11.736;2023-09-19T01:39:07;16.20;99.90
12268;DHT22;6196;48.398;11.736;2023-09-19T01:44:31;16.30;99.90
12268;DHT22;6196;48.398;11.736;2023-09-19T01:47:41;16.30;99.90
12268;DHT22;6196;48.398;11.736;2023-09-19T01:50:38;16.30;99.90
12268;DHT22;6196;48.398;11.736;2023-09-19T01:53:33;16.40;99.90
12268;DHT22;6196;48.398;11.736;2023-09-19T01:56:05;16.50;99.90
12268;DHT22;6196;48.398;11.736;2023-09-19T01:58:48;16.50;99.90
12268;DHT22;6196;48.398;11.736;2023-09-19T02:01:19;16.50;99.90
12268;DHT22;6196;48.398;11.736;2023-09-19T02:03:47;16.60;99.90
12268;DHT22;6196;48.398;11.736;2023-09-19T02:06:16;16.70;99.90
12268;DHT22;6196;48.398;11.736;2023-09-19T02:08:45;16.80;99.90
12268;DHT22;6196;48.398;11.736;2023-09-19T02:11:12;16.80;99.90
12268;DHT22;6196;48.398;11.736;2023-09-19T02:13:43;16.90;99.90
12268;DHT22;6196;48.398;11.736;2023-09-19T02:16:10;16.90;99.90
12268;DHT22;6196;48.398;11.736;2023-09-19T02:18:38;17.00;99.90
12268;DHT22;6196;48.398;11.736;2023-09-19T02:21:06;17.00;99.90
12268;DHT22;6196;48.398;11.736;2023-09-19T02:23:38;17.00;99.90
12268;DHT22;6196;48.398;11.736;2023-09-19T02:26:06;17.00;99.90
12268;DHT22;6196;48.398;11.736;2023-09-19T02:28:34;17.10;99.90
12268;DHT22;6196;48.398;11.736;2023-09-19T02:31:02;17.10;99.90
12268;DHT22;6196;48.398;11.736;2023-09-19T02:33:32;17.10;99.90
12268;DHT22;6196;48.398;11.736;2023-09-19T02:35:59;17.10;99.90
12268;DHT22;6196;48.398;11.736;2023-09-19T02:38:27;17.10;99.90
12268;DHT22;6196;48.398;11.736;2023-09-19T02:40:56;17.10;99.90
12268;DHT22;6196;48.398;11.736;2023-09-19T02:43:23;17.10;99.90
12268;DHT22;6196;48.398;11.736;2023-09-19T02:45:51;17.20;99.90
12268;DHT22;6196;48.398;11.736;2023-09-19T02:48:21;17.10;99.90
12268;DHT22;6196;48.398;11.736;2023-09-19T02:50:51;17.20;99.90
12268;DHT22;6196;48.398;11.736;2023-09-19T02:53:19;17.30;99.90
12268;DHT22;6196;48.398;11.736;2023-09-19T02:55:46;17.30;99.90
12268;DHT22;6196;48.398;11.736;2023-09-19T02:58:15;17.30;99.90
12268;DHT22;6196;48.398;11.736;2023-09-19T03:00:42;17.20;99.90
12268;DHT22;6196;48.398;11.736;2023-09-19T03:03:14;17.20;99.90
12268;DHT22;6196;48.398;11.736;2023-09-19T03:05:44;17.10;99.90
12268;DHT22;6196;48.398;11.736;2023-09-19T03:08:15;17.10;99.90
12268;DHT22;6196;48.398;11.736;2023-09-19T03:10:46;17.00;99.90
12268;DHT22;6196;48.398;11.736;2023-09-19T03:13:14;17.00;99.90
12268;DHT22;6196;48.398;11.736;2023-09-19T03:15:42;16.90;99.90
12268;DHT22;6196;48.398;11.736;2023-09-19T03:18:17;16.90;99.90
12268;DHT22;6196;48.398;11.736;2023-09-19T03:20:53;16.80;99.90
12268;DHT22;6196;48.398;11.736;2023-09-19T03:23:22;16.70;99.90
12268;DHT22;6196;48.398;11.736;2023-09-19T03:25:49;16.80;99.90
12268;DHT22;6196;48.398;11.736;2023-09-19T03:28:17;16.80;99.90
12268;DHT22;6196;48.398;11.736;2023-09-19T03:30:44;16.70;99.90
12268;DHT22;6196;48.398;11.736;2023-09-19T03:33:12;16.70;99.90
12268;DHT22;6196;48.398;11.736;2023-09-19T03:35:39;16.70;99.90
12268;DHT22;6196;48.398;11.736;2023-09-19T03:38:06;16.70;99.90
12268;DHT22;6196;48.398;11.736;2023-09-19T03:40:33;16.70;99.90
12268;DHT22;6196;48.398;11.736;2023-09-19T03:43:00;16.70;99.90
12268;DHT22;6196;48.398;11.736;2023-09-19T03:45:28;16.70;99.90
12268;DHT22;6196;48.398;11.736;2023-09-19T03:47:55;16.60;99.90
12268;DHT22;6196;48.398;11.736;2023-09-19T03:50:22;16.60;99.90
12268;DHT22;6196;48.398;11.736;2023-09-19T03:52:49;16.60;99.90
12268;DHT22;6196;48.398;11.736;2023-09-19T03:55:16;16.60;99.90
12268;DHT22;6196;48.398;11.736;2023-09-19T03:57:48;16.60;99.90
12268;DHT22;6196;48.398;11.736;2023-09-19T04:00:16;16.60;99.90
12268;DHT22;6196;48.398;11.736;2023-09-19T04:02:48;16.70;99.90
12268;DHT22;6196;48.398;11.736;2023-09-19T04:05:15;16.70;99.90
12268;DHT22;6196;48.398;11.736;2023-09-19T04:07:42;16.70;99.90
12268;DHT22;6196;48.398;11.736;2023-09-19T04:10:10;16.70;99.90
12268;DHT22;6196;48.398;11.736;2023-09-19T04:12:38;16.60;99.90
12268;DHT22;6196;48.398;11.736;2023-09-19T04:15:06;16.70;99.90
12268;DHT22;6196;48.398;11.736;2023-09-19T04:17:33;16.70;99.90
12268;DHT22;6196;48.398;11.736;2023-09-19T04:20:01;16.80;99.90
12268;DHT22;6196;48.398;11.736;2023-09-19T04:22:27;16.80;99.90
12268;DHT22;6196;48.398;11.736;2023-09-19T04:24:54;16.70;99.90
12268;DHT22;6196;48.398;11.736;2023-09-19T04:27:21;16.70;99.90
12268;DHT22;6196;48.398;11.736;2023-09-19T04:29:49;16.80;99.90
12268;DHT22;6196;48.398;11.736;2023-09-19T04:32:19;16.80;99.90
12268;DHT22;6196;48.398;11.736;2023-09-19T04:34:46;16.80;99.90
12268;DHT22;6196;48.398;11.736;2023-09-19T04:37:16;16.70;99.90
12268;DHT22;6196;48.398;11.736;2023-09-19T04:39:43;16.70;99.90
12268;DHT22;6196;48.398;11.736;2023-09-19T04:42:12;16.80;99.90
12268;DHT22;6196;48.398;11.736;2023-09-19T04:44:41;16.80;99.90
12268;DHT22;6196;48.398;11.736;2023-09-19T04:47:09;16.80;99.90
12268;DHT22;6196;48.398;11.736;2023-09-19T04:49:38;16.90;99.90
12268;DHT22;6196;48.398;11.736;2023-09-19T04:52:06;16.90;99.90
12268;DHT22;6196;48.398;11.736;2023-09-19T04:54:33;16.90;99.90
12268;DHT22;6196;48.398;11.736;2023-09-19T04:57:00;17.00;99.90
12268;DHT22;6196;48.398;11.736;2023-09-19T04:59:27;16.90;99.90
12268;DHT22;6196;48.398;11.736;2023-09-19T05:01:55;17.00;99.90
12268;DHT22;6196;48.398;11.736;2023-09-19T05:04:22;17.10;99.90
12268;DHT22;6196;48.398;11.736;2023-09-19T05:06:49;17.10;99.90
12268;DHT22;6196;48.398;11.736;2023-09-19T05:09:17;17.10;99.90
12268;DHT22;6196;48.398;11.736;2023-09-19T05:11:46;17.00;99.90
12268;DHT22;6196;48.398;11.736;2023-09-19T05:14:13;17.10;99.90
12268;DHT22;6196;48.398;11.736;2023-09-19T05:16:40;17.20;99.90
12268;DHT22;6196;48.398;11.736;2023-09-19T05:19:07;17.20;99.90
12268;DHT22;6196;48.398;11.736;2023-09-19T05:21:38;17.20;99.90
12268;DHT22;6196;48.398;11.736;2023-09-19T05:24:05;17.20;99.90
12268;DHT22;6196;48.398;11.736;2023-09-19T05:26:36;17.20;99.90
12268;DHT22;6196;48.398;11.736;2023-09-19T05:29:03;17.20;99.90
12268;DHT22;6196;48.398;11.736;2023-09-19T05:31:31;17.20;99.90
12268;DHT22;6196;48.398;11.736;2023-09-19T05:33:58;17.10;99.90
12268;DHT22;6196;48.398;11.736;2023-09-19T05:36:27;17.40;99.90
12268;DHT22;6196;48.398;11.736;2023-09-19T05:38:56;17.40;99.90
12268;DHT22;6196;48.398;11.736;2023-09-19T05:41:23;17.20;99.90
12268;DHT22;6196;48.398;11.736;2023-09-19T05:43:50;17.30;99.90
12268;DHT22;6196;48.398;11.736;2023-09-19T05:46:17;17.30;99.90
12268;DHT22;6196;48.398;11.736;2023-09-19T05:48:45;17.40;99.90
12268;DHT22;6196;48.398;11.736;2023-09-19T05:51:14;17.30;99.90
12268;DHT22;6196;48.398;11.736;2023-09-19T05:53:41;17.30;99.90
12268;DHT22;6196;48.398;11.736;2023-09-19T05:56:10;17.40;99.90
12268;DHT22;6196;48.398;11.736;2023-09-19T05:58:37;17.30;99.90
12268;DHT22;6196;48.398;11.736;2023-09-19T06:01:05;17.30;99.90
12268;DHT22;6196;48.398;11.736;2023-09-19T06:03:34;17.40;99.90
12268;DHT22;6196;48.398;11.736;2023-09-19T06:06:02;17.40;99.90
12268;DHT22;6196;48.398;11.736;2023-09-19T06:08:29;17.60;99.90
12268;DHT22;6196;48.398;11.736;2023-09-19T06:10:57;17.80;99.90
12268;DHT22;6196;48.398;11.736;2023-09-19T06:13:24;18.00;99.90
12268;DHT22;6196;48.398;11.736;2023-09-19T06:15:54;18.20;99.90
12268;DHT22;6196;48.398;11.736;2023-09-19T06:18:23;18.00;99.90
12268;DHT22;6196;48.398;11.736;2023-09-19T06:20:52;18.00;99.90
12268;DHT22;6196;48.398;11.736;2023-09-19T06:23:21;17.90;99.90
12268;DHT22;6196;48.398;11.736;2023-09-19T06:25:48;17.80;99.90
12268;DHT22;6196;48.398;11.736;2023-09-19T06:28:15;17.80;99.90
12268;DHT22;6196;48.398;11.736;2023-09-19T06:30:45;17.90;99.90
12268;DHT22;6196;48.398;11.736;2023-09-19T06:33:12;18.00;99.90
12268;DHT22;6196;48.398;11.736;2023-09-19T06:35:44;18.10;99.90
12268;DHT22;6196;48.398;11.736;2023-09-19T06:38:11;18.50;99.90
12268;DHT22;6196;48.398;11.736;2023-09-19T06:40:39;18.90;99.90
12268;DHT22;6196;48.398;11.736;2023-09-19T06:43:10;19.40;99.90
12268;DHT22;6196;48.398;11.736;2023-09-19T06:45:37;19.60;99.90
12268;DHT22;6196;48.398;11.736;2023-09-19T06:48:05;19.60;99.90
12268;DHT22;6196;48.398;11.736;2023-09-19T06:50:32;19.70;99.90
12268;DHT22;6196;48.398;11.736;2023-09-19T06:53:01;20.00;99.90
12268;DHT22;6196;48.398;11.736;2023-09-19T06:55:28;20.30;99.90
12268;DHT22;6196;48.398;11.736;2023-09-19T06:57:58;20.50;99.90
12268;DHT22;6196;48.398;11.736;2023-09-19T07:00:25;20.50;99.90
12268;DHT22;6196;48.398;11.736;2023-09-19T07:05:32;20.90;99.90
12268;DHT22;6196;48.398;11.736;2023-09-19T07:08:00;20.60;99.90
12268;DHT22;6196;48.398;11.736;2023-09-19T07:10:27;20.70;99.90
12268;DHT22;6196;48.398;11.736;2023-09-19T07:13:05;21.00;99.90
12268;DHT22;6196;48.398;11.736;2023-09-19T07:15:36;20.90;99.90
12268;DHT22;6196;48.398;11.736;2023-09-19T07:18:06;21.20;99.90
12268;DHT22;6196;48.398;11.736;2023-09-19T07:20:36;21.00;99.90
12268;DHT22;6196;48.398;11.736;2023-09-19T07:23:04;21.10;99.90
12268;DHT22;6196;48.398;11.736;2023-09-19T07:25:30;20.80;99.90
12268;DHT22;6196;48.398;11.736;2023-09-19T07:27:58;20.30;99.90
12268;DHT22;6196;48.398;11.736;2023-09-19T07:30:28;20.00;99.90
12268;DHT22;6196;48.398;11.736;2023-09-19T07:32:56;19.80;99.90
12268;DHT22;6196;48.398;11.736;2023-09-19T07:35:23;20.00;99.90
12268;DHT22;6196;48.398;11.736;2023-09-19T07:37:50;20.30;99.90
12268;DHT22;6196;48.398;11.736;2023-09-19T07:40:19;20.60;99.90
12268;DHT22;6196;48.398;11.736;2023-09-19T07:42:47;20.80;99.90
12268;DHT22;6196;48.398;11.736;2023-09-19T07:45:14;21.00;99.90
12268;DHT22;6196;48.398;11.736;2023-09-19T07:47:44;21.00;99.90
12268;DHT22;6196;48.398;11.736;2023-09-19T07:50:18;20.90;99.90
12268;DHT22;6196;48.398;11.736;2023-09-19T07:52:47;20.80;99.90
12268;DHT22;6196;48.398;11.736;2023-09-19T07:55:17;21.20;99.90
12268;DHT22;6196;48.398;11.736;2023-09-19T07:57:46;21.20;99.90
12268;DHT22;6196;48.398;11.736;2023-09-19T08:00:14;21.20;99.90
12268;DHT22;6196;48.398;11.736;2023-09-19T08:02:41;21.30;99.90
12268;DHT22;6196;48.398;11.736;2023-09-19T08:05:10;21.40;99.90
12268;DHT22;6196;48.398;11.736;2023-09-19T08:07:40;21.90;99.90
12268;DHT22;6196;48.398;11.736;2023-09-19T08:10:08;22.00;99.90
12268;DHT22;6196;48.398;11.736;2023-09-19T08:12:43;22.30;99.90
12268;DHT22;6196;48.398;11.736;2023-09-19T08:15:15;22.70;99.90
12268;DHT22;6196;48.398;11.736;2023-09-19T08:17:43;22.50;99.90
12268;DHT22;6196;48.398;11.736;2023-09-19T08:20:10;22.60;99.90
12268;DHT22;6196;48.398;11.736;2023-09-19T08:22:49;22.80;99.90
12268;DHT22;6196;48.398;11.736;2023-09-19T08:25:24;22.80;99.90
12268;DHT22;6196;48.398;11.736;2023-09-19T08:27:55;23.30;99.90
12268;DHT22;6196;48.398;11.736;2023-09-19T08:30:24;23.70;99.90
12268;DHT22;6196;48.398;11.736;2023-09-19T08:33:02;23.90;99.90
12268;DHT22;6196;48.398;11.736;2023-09-19T08:35:31;23.90;99.90
12268;DHT22;6196;48.398;11.736;2023-09-19T08:37:58;23.40;99.90
12268;DHT22;6196;48.398;11.736;2023-09-19T08:40:30;23.70;99.90
12268;DHT22;6196;48.398;11.736;2023-09-19T08:42:59;23.80;99.90
12268;DHT22;6196;48.398;11.736;2023-09-19T08:45:27;24.10;99.90
12268;DHT22;6196;48.398;11.736;2023-09-19T08:51:10;24.40;99.90
12268;DHT22;6196;48.398;11.736;2023-09-19T08:53:51;22.80;99.90
12268;DHT22;6196;48.398;11.736;2023-09-19T08:56:22;23.30;99.90
12268;DHT22;6196;48.398;11.736;2023-09-19T08:58:54;23.80;99.90
12268;DHT22;6196;48.398;11.736;2023-09-19T09:01:28;24.20;99.90
12268;DHT22;6196;48.398;11.736;2023-09-19T09:03:56;24.30;99.90
12268;DHT22;6196;48.398;11.736;2023-09-19T09:06:25;24.10;99.90
12268;DHT22;6196;48.398;11.736;2023-09-19T09:08:55;24.20;99.90
12268;DHT22;6196;48.398;11.736;2023-09-19T09:11:22;25.00;99.90
12268;DHT22;6196;48.398;11.736;2023-09-19T09:13:54;24.90;99.90
12268;DHT22;6196;48.398;11.736;2023-09-19T09:16:21;25.40;99.90
12268;DHT22;6196;48.398;11.736;2023-09-19T09:18:52;25.30;99.90
12268;DHT22;6196;48.398;11.736;2023-09-19T09:21:22;24.60;99.90
12268;DHT22;6196;48.398;11.736;2023-09-19T09:23:49;24.70;99.90
12268;DHT22;6196;48.398;11.736;2023-09-19T09:26:41;24.40;99.90
12268;DHT22;6196;48.398;11.736;2023-09-19T09:29:09;24.20;99.90
12268;DHT22;6196;48.398;11.736;2023-09-19T09:31:36;23.80;99.90
12268;DHT22;6196;48.398;11.736;2023-09-19T09:34:04;23.70;99.90
12268;DHT22;6196;48.398;11.736;2023-09-19T09:36:36;23.80;99.90
12268;DHT22;6196;48.398;11.736;2023-09-19T09:39:04;23.50;99.90
12268;DHT22;6196;48.398;11.736;2023-09-19T09:41:52;23.10;99.90
12268;DHT22;6196;48.398;11.736;2023-09-19T09:44:19;23.00;99.90
12268;DHT22;6196;48.398;11.736;2023-09-19T09:46:47;22.70;99.90
12268;DHT22;6196;48.398;11.736;2023-09-19T09:49:25;22.50;99.90
12268;DHT22;6196;48.398;11.736;2023-09-19T09:52:04;22.50;99.90
12268;DHT22;6196;48.398;11.736;2023-09-19T09:55:00;22.70;99.90
12268;DHT22;6196;48.398;11.736;2023-09-19T09:57:33;22.80;99.90
12268;DHT22;6196;48.398;11.736;2023-09-19T10:00:02;22.70;99.90
12268;DHT22;6196;48.398;11.736;2023-09-19T10:02:38;22.50;99.90
12268;DHT22;6196;48.398;11.736;2023-09-19T10:05:20;22.30;99.90
12268;DHT22;6196;48.398;11.736;2023-09-19T10:07:48;22.00;99.90
12268;DHT22;6196;48.398;11.736;2023-09-19T10:10:37;21.90;99.90
12268;DHT22;6196;48.398;11.736;2023-09-19T10:13:08;22.10;99.90
12268;DHT22;6196;48.398;11.736;2023-09-19T10:15:49;22.10;99.90
12268;DHT22;6196;48.398;11.736;2023-09-19T10:18:23;22.30;99.90
12268;DHT22;6196;48.398;11.736;2023-09-19T10:20:51;22.40;99.90
12268;DHT22;6196;48.398;11.736;2023-09-19T10:23:20;22.60;99.90
12268;DHT22;6196;48.398;11.736;2023-09-19T10:25:52;21.70;99.90
12268;DHT22;6196;48.398;11.736;2023-09-19T10:28:21;21.60;99.90
12268;DHT22;6196;48.398;11.736;2023-09-19T10:30:51;21.80;99.90
12268;DHT22;6196;48.398;11.736;2023-09-19T10:33:21;22.00;99.90
12268;DHT22;6196;48.398;11.736;2023-09-19T10:35:59;22.40;99.90
12268;DHT22;6196;48.398;11.736;2023-09-19T10:38:27;22.50;99.90
12268;DHT22;6196;48.398;11.736;2023-09-19T10:40:56;21.80;99.90
12268;DHT22;6196;48.398;11.736;2023-09-19T10:43:32;21.40;99.90
12268;DHT22;6196;48.398;11.736;2023-09-19T10:46:07;21.10;99.90
12268;DHT22;6196;48.398;11.736;2023-09-19T10:48:38;20.50;99.90
12268;DHT22;6196;48.398;11.736;2023-09-19T10:53:55;20.30;99.90
12268;DHT22;6196;48.398;11.736;2023-09-19T10:56:36;20.20;99.90
12268;DHT22;6196;48.398;11.736;2023-09-19T10:59:10;20.20;99.90
12268;DHT22;6196;48.398;11.736;2023-09-19T11:04:35;20.60;99.90
12268;DHT22;6196;48.398;11.736;2023-09-19T11:09:54;21.40;99.90
12268;DHT22;6196;48.398;11.736;2023-09-19T11:14:59;21.50;99.90
12268;DHT22;6196;48.398;11.736;2023-09-19T11:17:33;21.20;99.90
12268;DHT22;6196;48.398;11.736;2023-09-19T11:30:54;23.20;99.90
12268;DHT22;6196;48.398;11.736;2023-09-19T11:33:32;23.20;99.90
12268;DHT22;6196;48.398;11.736;2023-09-19T11:36:10;23.50;99.90
12268;DHT22;6196;48.398;11.736;2023-09-19T11:46:28;26.20;99.90
12268;DHT22;6196;48.398;11.736;2023-09-19T11:49:08;26.20;99.90
12268;DHT22;6196;48.398;11.736;2023-09-19T11:51:56;26.40;99.90
12268;DHT22;6196;48.398;11.736;2023-09-19T11:54:24;26.10;99.90
12268;DHT22;6196;48.398;11.736;2023-09-19T11:56:55;25.90;99.90
12268;DHT22;6196;48.398;11.736;2023-09-19T11:59:27;25.20;99.90
12268;DHT22;6196;48.398;11.736;2023-09-19T12:02:05;24.10;99.90
12268;DHT22;6196;48.398;11.736;2023-09-19T12:04:40;23.70;99.90
12268;DHT22;6196;48.398;11.736;2023-09-19T12:07:14;23.20;99.90
12268;DHT22;6196;48.398;11.736;2023-09-19T12:09:47;23.00;99.90
12268;DHT22;6196;48.398;11.736;2023-09-19T12:12:20;23.00;99.90
12268;DHT22;6196;48.398;11.736;2023-09-19T12:14:51;22.90;99.90
12268;DHT22;6196;48.398;11.736;2023-09-19T12:17:18;22.60;99.90
12268;DHT22;6196;48.398;11.736;2023-09-19T12:19:53;22.40;99.90
12268;DHT22;6196;48.398;11.736;2023-09-19T12:22:22;22.20;99.90
12268;DHT22;6196;48.398;11.736;2023-09-19T12:24:49;22.40;99.90
12268;DHT22;6196;48.398;11.736;2023-09-19T12:27:17;22.20;99.90
12268;DHT22;6196;48.398;11.736;2023-09-19T12:29:45;22.30;99.90
12268;DHT22;6196;48.398;11.736;2023-09-19T12:32:17;22.80;99.90
12268;DHT22;6196;48.398;11.736;2023-09-19T12:34:52;23.40;99.90
12268;DHT22;6196;48.398;11.736;2023-09-19T12:37:20;24.00;99.90
12268;DHT22;6196;48.398;11.736;2023-09-19T12:39:50;24.10;99.90
12268;DHT22;6196;48.398;11.736;2023-09-19T12:42:25;24.30;99.90
12268;DHT22;6196;48.398;11.736;2023-09-19T12:44:59;24.20;99.90
12268;DHT22;6196;48.398;11.736;2023-09-19T12:47:28;23.90;99.90
12268;DHT22;6196;48.398;11.736;2023-09-19T12:50:06;23.70;99.90
12268;DHT22;6196;48.398;11.736;2023-09-19T12:52:48;23.30;99.90
12268;DHT22;6196;48.398;11.736;2023-09-19T12:55:42;22.70;99.90
12268;DHT22;6196;48.398;11.736;2023-09-19T12:58:14;22.20;99.90
12268;DHT22;6196;48.398;11.736;2023-09-19T13:00:46;21.90;99.90
12268;DHT22;6196;48.398;11.736;2023-09-19T13:05:59;21.30;99.90
12268;DHT22;6196;48.398;11.736;2023-09-19T13:08:32;21.40;99.90
12268;DHT22;6196;48.398;11.736;2023-09-19T13:11:13;21.90;99.90
12268;DHT22;6196;48.398;11.736;2023-09-19T13:16:28;25.50;99.90
12268;DHT22;6196;48.398;11.736;2023-09-19T13:18:56;28.30;99.90
12268;DHT22;6196;48.398;11.736;2023-09-19T13:21:31;29.80;99.90
12268;DHT22;6196;48.398;11.736;2023-09-19T13:24:24;31.20;99.90
12268;DHT22;6196;48.398;11.736;2023-09-19T13:26:56;32.70;99.90
12268;DHT22;6196;48.398;11.736;2023-09-19T13:29:23;33.50;99.90
12268;DHT22;6196;48.398;11.736;2023-09-19T13:31:52;33.10;98.60
12268;DHT22;6196;48.398;11.736;2023-09-19T13:34:20;32.80;99.00
12268;DHT22;6196;48.398;11.736;2023-09-19T13:36:47;33.20;97.50
12268;DHT22;6196;48.398;11.736;2023-09-19T13:39:17;33.30;97.80
12268;DHT22;6196;48.398;11.736;2023-09-19T13:41:46;34.50;96.60
12268;DHT22;6196;48.398;11.736;2023-09-19T13:44:14;34.90;94.40
12268;DHT22;6196;48.398;11.736;2023-09-19T13:46:44;35.30;93.00
12268;DHT22;6196;48.398;11.736;2023-09-19T13:49:13;34.50;92.80
12268;DHT22;6196;48.398;11.736;2023-09-19T13:51:40;34.40;92.60
12268;DHT22;6196;48.398;11.736;2023-09-19T13:54:10;34.70;92.20
12268;DHT22;6196;48.398;11.736;2023-09-19T13:56:38;34.80;92.00
12268;DHT22;6196;48.398;11.736;2023-09-19T13:59:06;33.80;92.20
12268;DHT22;6196;48.398;11.736;2023-09-19T14:01:33;33.60;92.30
12268;DHT22;6196;48.398;11.736;2023-09-19T14:04:00;34.40;90.70
12268;DHT22;6196;48.398;11.736;2023-09-19T14:06:28;34.40;91.50
12268;DHT22;6196;48.398;11.736;2023-09-19T14:08:55;34.50;91.00
12268;DHT22;6196;48.398;11.736;2023-09-19T14:11:22;34.20;90.70
12268;DHT22;6196;48.398;11.736;2023-09-19T14:13:49;35.20;89.40
12268;DHT22;6196;48.398;11.736;2023-09-19T14:16:16;36.00;88.60
12268;DHT22;6196;48.398;11.736;2023-09-19T14:18:45;36.30;84.80
12268;DHT22;6196;48.398;11.736;2023-09-19T14:21:13;37.50;84.40
12268;DHT22;6196;48.398;11.736;2023-09-19T14:23:41;37.50;81.40
12268;DHT22;6196;48.398;11.736;2023-09-19T14:26:10;35.50;79.70
12268;DHT22;6196;48.398;11.736;2023-09-19T14:28:37;33.10;86.90
12268;DHT22;6196;48.398;11.736;2023-09-19T14:31:10;30.40;91.50
12268;DHT22;6196;48.398;11.736;2023-09-19T14:33:38;29.00;93.20
12268;DHT22;6196;48.398;11.736;2023-09-19T14:36:07;28.20;94.20
12268;DHT22;6196;48.398;11.736;2023-09-19T14:38:37;27.50;96.50
12268;DHT22;6196;48.398;11.736;2023-09-19T14:41:06;28.90;94.00
12268;DHT22;6196;48.398;11.736;2023-09-19T14:43:33;29.10;94.30
12268;DHT22;6196;48.398;11.736;2023-09-19T14:46:04;30.30;93.20
12268;DHT22;6196;48.398;11.736;2023-09-19T14:48:34;31.70;91.40
12268;DHT22;6196;48.398;11.736;2023-09-19T14:51:05;32.60;90.00
12268;DHT22;6196;48.398;11.736;2023-09-19T14:53:36;33.10;87.70
12268;DHT22;6196;48.398;11.736;2023-09-19T14:56:07;32.70;88.40
12268;DHT22;6196;48.398;11.736;2023-09-19T14:58:35;33.40;89.10
12268;DHT22;6196;48.398;11.736;2023-09-19T15:01:07;34.80;88.50
12268;DHT22;6196;48.398;11.736;2023-09-19T15:03:37;35.40;84.30
12268;DHT22;6196;48.398;11.736;2023-09-19T15:06:13;35.20;83.50
12268;DHT22;6196;48.398;11.736;2023-09-19T15:08:45;34.30;85.90
12268;DHT22;6196;48.398;11.736;2023-09-19T15:11:15;34.30;84.60
12268;DHT22;6196;48.398;11.736;2023-09-19T15:13:50;33.20;87.20
12268;DHT22;6196;48.398;11.736;2023-09-19T15:16:18;32.20;88.10
12268;DHT22;6196;48.398;11.736;2023-09-19T15:18:46;30.90;91.30
12268;DHT22;6196;48.398;11.736;2023-09-19T15:21:18;30.40;91.30
12268;DHT22;6196;48.398;11.736;2023-09-19T15:23:45;31.40;91.50
12268;DHT22;6196;48.398;11.736;2023-09-19T15:26:14;32.00;90.90
12268;DHT22;6196;48.398;11.736;2023-09-19T15:28:47;31.00;91.10
12268;DHT22;6196;48.398;11.736;2023-09-19T15:31:15;29.30;92.00
12268;DHT22;6196;48.398;11.736;2023-09-19T15:33:42;27.90;93.00
12268;DHT22;6196;48.398;11.736;2023-09-19T15:36:11;26.80;95.00
12268;DHT22;6196;48.398;11.736;2023-09-19T15:39:08;25.80;96.20
12268;DHT22;6196;48.398;11.736;2023-09-19T15:41:40;24.90;98.20
12268;DHT22;6196;48.398;11.736;2023-09-19T15:44:12;24.20;98.70
12268;DHT22;6196;48.398;11.736;2023-09-19T15:46:40;23.90;99.90
12268;DHT22;6196;48.398;11.736;2023-09-19T15:49:08;23.60;99.90
12268;DHT22;6196;48.398;11.736;2023-09-19T15:51:35;23.40;99.90
12268;DHT22;6196;48.398;11.736;2023-09-19T15:54:13;23.10;99.90
12268;DHT22;6196;48.398;11.736;2023-09-19T15:56:45;22.80;99.90
12268;DHT22;6196;48.398;11.736;2023-09-19T15:59:13;22.70;99.90
12268;DHT22;6196;48.398;11.736;2023-09-19T16:01:41;22.70;99.90
12268;DHT22;6196;48.398;11.736;2023-09-19T16:04:10;22.90;99.90
12268;DHT22;6196;48.398;11.736;2023-09-19T16:06:39;22.80;99.90
12268;DHT22;6196;48.398;11.736;2023-09-19T16:09:06;22.80;99.90
12268;DHT22;6196;48.398;11.736;2023-09-19T16:11:34;22.70;99.90
12268;DHT22;6196;48.398;11.736;2023-09-19T16:14:04;22.50;99.90
12268;DHT22;6196;48.398;11.736;2023-09-19T16:16:33;22.30;99.90
12268;DHT22;6196;48.398;11.736;2023-09-19T16:19:03;22.10;99.90
12268;DHT22;6196;48.398;11.736;2023-09-19T16:21:33;21.90;99.90
12268;DHT22;6196;48.398;11.736;2023-09-19T16:24:03;21.80;99.90
12268;DHT22;6196;48.398;11.736;2023-09-19T16:26:33;21.70;99.90
12268;DHT22;6196;48.398;11.736;2023-09-19T16:29:00;21.60;99.90
12268;DHT22;6196;48.398;11.736;2023-09-19T16:31:28;21.50;99.90
12268;DHT22;6196;48.398;11.736;2023-09-19T16:33:56;21.40;99.90
12268;DHT22;6196;48.398;11.736;2023-09-19T16:36:26;21.20;99.90
12268;DHT22;6196;48.398;11.736;2023-09-19T16:38:54;21.10;99.90
12268;DHT22;6196;48.398;11.736;2023-09-19T16:41:21;21.00;99.90
12268;DHT22;6196;48.398;11.736;2023-09-19T16:43:48;21.00;99.90
12268;DHT22;6196;48.398;11.736;2023-09-19T16:46:16;20.80;99.90